Time;durP1;ratioP1;P1;durP2;ratioP2;P2;SDS_P1;SDS_P2;PMS_P1;PMS_P2;Temp;Humidity;BMP_temperature;BMP_pressure;BME280_temperature;BME280_humidity;BME280_pressure;Samples;Min_cycle;Max_cycle;Signal;HPM_P1;HPM_P2
2023/07/26 00:00:33;;;;;;;1.70;1.50;;;21.70;63.90;;;;;;4982152;28;20042;-56
2023/07/26 00:02:59;;;;;;;1.98;1.48;;;21.70;63.80;;;;;;4980786;28;20031;-55
2023/07/26 00:05:24;;;;;;;2.20;1.63;;;21.70;63.80;;;;;;4980510;28;20416;-57
2023/07/26 00:07:50;;;;;;;1.88;1.25;;;21.70;63.80;;;;;;4977937;28;20081;-53
2023/07/26 00:10:15;;;;;;;2.60;1.25;;;21.70;63.90;;;;;;4978538;28;20046;-55
2023/07/26 00:12:42;;;;;;;2.25;1.67;;;21.70;63.80;;;;;;4980872;28;20022;-54
2023/07/26 00:15:08;;;;;;;1.90;1.60;;;21.70;63.80;;;;;;4979160;28;20464;-55
2023/07/26 00:17:34;;;;;;;1.80;1.20;;;21.70;63.90;;;;;;4974283;28;20080;-53
2023/07/26 00:19:59;;;;;;;1.98;1.13;;;21.70;63.90;;;;;;4975084;28;20035;-56
2023/07/26 00:22:25;;;;;;;2.55;1.20;;;21.70;63.90;;;;;;4979365;28;20031;-58
2023/07/26 00:24:50;;;;;;;2.00;1.80;;;21.70;63.70;;;;;;4979400;28;20110;-58
2023/07/26 00:27:17;;;;;;;1.38;1.20;;;21.70;63.80;;;;;;4975998;28;20026;-54
2023/07/26 00:29:42;;;;;;;2.50;1.40;;;21.70;63.80;;;;;;4990454;28;20487;-53
2023/07/26 00:32:08;;;;;;;2.50;1.40;;;21.70;63.80;;;;;;4976565;28;20030;-51
2023/07/26 00:34:35;;;;;;;2.22;1.50;;;21.70;63.90;;;;;;4977498;28;20112;-54
2023/07/26 00:37:03;;;;;;;2.63;1.50;;;21.70;63.60;;;;;;4974660;28;20049;-54
2023/07/26 00:39:29;;;;;;;4.18;1.15;;;21.70;63.80;;;;;;4978497;28;20041;-57
2023/07/26 00:41:55;;;;;;;1.52;1.20;;;21.70;63.80;;;;;;4979410;28;20027;-54
2023/07/26 00:44:20;;;;;;;4.10;1.33;;;21.70;63.90;;;;;;4984235;28;20034;-53
2023/07/26 00:46:46;;;;;;;3.08;1.52;;;21.70;63.80;;;;;;4972529;28;20413;-54
2023/07/26 00:49:11;;;;;;;3.00;1.45;;;21.70;63.70;;;;;;4976556;28;20524;-54
2023/07/26 00:51:38;;;;;;;2.72;1.20;;;21.70;63.70;;;;;;4976824;28;20065;-58
2023/07/26 00:54:05;;;;;;;3.38;1.67;;;21.60;63.60;;;;;;4979652;28;20571;-56
2023/07/26 00:56:31;;;;;;;1.98;1.40;;;21.70;63.60;;;;;;4976601;28;20058;-56
2023/07/26 00:58:57;;;;;;;2.80;1.60;;;21.70;63.60;;;;;;4980161;23;20043;-54
2023/07/26 01:01:23;;;;;;;2.05;1.40;;;21.70;63.70;;;;;;4957854;28;20039;-51
2023/07/26 01:03:48;;;;;;;4.85;1.45;;;21.60;63.70;;;;;;4939477;28;20031;-52
2023/07/26 01:06:25;;;;;;;3.42;1.25;;;21.70;63.80;;;;;;4938996;28;20038;-51
2023/07/26 01:09:02;;;;;;;1.85;1.25;;;21.60;63.70;;;;;;4936562;28;20468;-53
2023/07/26 01:11:32;;;;;;;1.98;1.25;;;21.60;63.70;;;;;;4938113;28;20031;-51
2023/07/26 01:14:06;;;;;;;2.80;1.70;;;21.60;63.60;;;;;;4936545;28;20028;-53
2023/07/26 01:16:32;;;;;;;4.60;1.33;;;21.60;63.60;;;;;;4935811;28;20043;-50
2023/07/26 01:18:58;;;;;;;4.10;1.20;;;21.60;63.70;;;;;;4937538;28;20271;-49
2023/07/26 01:21:23;;;;;;;3.35;1.25;;;21.60;63.60;;;;;;4938013;28;20101;-51
2023/07/26 01:23:49;;;;;;;2.35;1.30;;;21.60;63.60;;;;;;4940267;28;20027;-49
2023/07/26 01:26:14;;;;;;;2.40;1.48;;;21.60;63.60;;;;;;4938855;28;20028;-52
2023/07/26 01:28:40;;;;;;;2.78;1.13;;;21.60;63.50;;;;;;4940892;28;20034;-52
2023/07/26 01:31:07;;;;;;;2.55;1.00;;;21.60;63.60;;;;;;4938244;28;20097;-52
2023/07/26 01:33:35;;;;;;;2.17;1.55;;;21.60;63.70;;;;;;4939751;28;20039;-54
2023/07/26 01:36:01;;;;;;;1.40;1.30;;;21.60;63.50;;;;;;4934725;28;20043;-50
2023/07/26 01:38:28;;;;;;;2.22;1.00;;;21.60;63.70;;;;;;4939329;28;20556;-50
2023/07/26 01:40:54;;;;;;;2.65;0.98;;;21.60;63.70;;;;;;4942008;28;20131;-51
2023/07/26 01:43:20;;;;;;;2.50;1.10;;;21.60;63.60;;;;;;4933626;28;20098;-52
2023/07/26 01:45:45;;;;;;;3.47;1.20;;;21.60;63.60;;;;;;4942058;28;20036;-51
2023/07/26 01:48:11;;;;;;;2.38;1.50;;;21.60;63.50;;;;;;4937970;28;20070;-50
2023/07/26 01:50:36;;;;;;;1.98;1.23;;;21.60;63.70;;;;;;4939692;28;20041;-56
2023/07/26 01:53:02;;;;;;;2.28;1.02;;;21.60;63.60;;;;;;4937656;28;20378;-51
2023/07/26 01:55:28;;;;;;;3.97;1.13;;;21.60;63.70;;;;;;4940257;28;20081;-51
2023/07/26 01:57:54;;;;;;;2.95;1.25;;;21.60;63.70;;;;;;4937999;28;20036;-51
2023/07/26 02:00:19;;;;;;;3.10;1.42;;;21.60;63.80;;;;;;4938141;28;20046;-51
2023/07/26 02:02:45;;;;;;;3.10;1.10;;;21.60;63.70;;;;;;4937857;28;20030;-52
2023/07/26 02:05:11;;;;;;;2.97;1.60;;;21.60;63.70;;;;;;4936072;28;20031;-53
2023/07/26 02:07:37;;;;;;;1.30;1.20;;;21.60;63.70;;;;;;4937799;28;20057;-53
2023/07/26 02:10:03;;;;;;;3.90;1.33;;;21.60;63.80;;;;;;4938050;28;20042;-51
2023/07/26 02:12:29;;;;;;;4.90;1.17;;;21.60;63.50;;;;;;4938185;28;20032;-53
2023/07/26 02:14:54;;;;;;;2.42;1.13;;;21.50;63.60;;;;;;4940838;28;20035;-51
2023/07/26 02:17:20;;;;;;;3.13;1.10;;;21.50;63.80;;;;;;4938581;28;20667;-53
2023/07/26 02:19:45;;;;;;;1.90;1.10;;;21.60;63.80;;;;;;4937718;28;20134;-54
2023/07/26 02:22:11;;;;;;;2.90;1.40;;;21.50;63.70;;;;;;4938539;28;20058;-53
2023/07/26 02:24:36;;;;;;;4.13;1.38;;;21.50;63.50;;;;;;4938341;28;20528;-51
2023/07/26 02:27:02;;;;;;;1.55;1.20;;;21.50;63.70;;;;;;4934537;28;20039;-53
2023/07/26 02:29:27;;;;;;;1.70;1.10;;;21.60;63.80;;;;;;4936216;28;20027;-49
2023/07/26 02:31:53;;;;;;;2.33;1.20;;;21.50;63.60;;;;;;4936283;28;20034;-49
2023/07/26 02:34:18;;;;;;;3.10;1.15;;;21.50;63.70;;;;;;4933306;28;20023;-50
2023/07/26 02:36:44;;;;;;;2.22;1.40;;;21.50;63.70;;;;;;4934330;28;20532;-50
2023/07/26 02:39:10;;;;;;;1.83;1.00;;;21.50;63.70;;;;;;4939363;28;20032;-55
2023/07/26 02:41:35;;;;;;;3.97;1.00;;;21.50;63.60;;;;;;4940848;28;20031;-50
2023/07/26 02:44:01;;;;;;;3.92;1.40;;;21.50;63.70;;;;;;4934671;28;20043;-50
2023/07/26 02:46:26;;;;;;;4.55;1.23;;;21.50;63.70;;;;;;4942918;28;20086;-53
2023/07/26 02:48:52;;;;;;;2.67;1.15;;;21.50;63.70;;;;;;4934750;28;20063;-51
2023/07/26 02:51:17;;;;;;;2.35;1.00;;;21.50;63.70;;;;;;4938455;28;20033;-52
2023/07/26 02:53:43;;;;;;;1.63;0.93;;;21.50;63.70;;;;;;4935422;28;20032;-55
2023/07/26 02:56:08;;;;;;;2.72;1.58;;;21.50;63.70;;;;;;4940280;28;20119;-53
2023/07/26 02:58:34;;;;;;;4.40;1.42;;;21.50;63.60;;;;;;4936719;28;20366;-50
2023/07/26 03:01:00;;;;;;;2.15;1.27;;;21.50;63.80;;;;;;4943013;28;20424;-51
2023/07/26 03:03:26;;;;;;;2.08;1.35;;;21.50;63.80;;;;;;4935198;28;20027;-50
2023/07/26 03:05:51;;;;;;;2.30;1.38;;;21.50;63.80;;;;;;4938230;28;20039;-50
2023/07/26 03:08:17;;;;;;;1.95;1.00;;;21.50;63.80;;;;;;4938238;28;20027;-53
2023/07/26 03:10:42;;;;;;;3.67;1.27;;;21.50;63.80;;;;;;4944577;28;20067;-61
2023/07/26 03:13:08;;;;;;;3.55;1.00;;;21.50;63.80;;;;;;4942992;28;20051;-52
2023/07/26 03:15:37;;;;;;;1.80;1.17;;;21.50;63.80;;;;;;4941865;28;20057;-53
2023/07/26 03:18:03;;;;;;;2.10;1.00;;;21.60;63.90;;;;;;4939723;28;20063;-51
2023/07/26 03:20:29;;;;;;;2.33;1.45;;;21.50;64.00;;;;;;4939998;28;20085;-51
2023/07/26 03:22:54;;;;;;;4.32;1.20;;;21.50;63.90;;;;;;4941665;28;20031;-53
2023/07/26 03:25:20;;;;;;;3.88;1.10;;;21.50;63.80;;;;;;4939855;28;20159;-50
2023/07/26 03:27:45;;;;;;;4.22;1.30;;;21.50;63.90;;;;;;4938541;28;20019;-51
2023/07/26 03:30:11;;;;;;;3.13;1.50;;;21.50;63.80;;;;;;4938195;28;20039;-51
2023/07/26 03:32:37;;;;;;;3.05;1.20;;;21.50;63.80;;;;;;4941188;28;20042;-50
2023/07/26 03:35:03;;;;;;;4.55;1.20;;;21.50;63.80;;;;;;4943179;28;20136;-50
2023/07/26 03:37:28;;;;;;;4.53;1.55;;;21.50;63.80;;;;;;4941619;28;20189;-53
2023/07/26 03:39:54;;;;;;;3.75;1.30;;;21.50;63.80;;;;;;4944959;28;20035;-53
2023/07/26 03:42:19;;;;;;;3.15;1.48;;;21.50;63.70;;;;;;4945385;28;20019;-50
2023/07/26 03:44:45;;;;;;;4.70;1.20;;;21.50;63.70;;;;;;4939359;28;20024;-51
2023/07/26 03:47:10;;;;;;;4.18;1.38;;;21.50;63.70;;;;;;4942987;28;20024;-56
2023/07/26 03:49:36;;;;;;;2.05;1.20;;;21.50;64.20;;;;;;4942171;28;20512;-53
2023/07/26 03:52:02;;;;;;;2.55;1.10;;;21.50;63.50;;;;;;4940225;28;20032;-55
2023/07/26 03:54:27;;;;;;;3.38;1.13;;;21.50;63.60;;;;;;4939507;28;20035;-49
2023/07/26 03:56:53;;;;;;;1.05;0.90;;;21.50;63.50;;;;;;4943613;28;20408;-51
2023/07/26 03:59:18;;;;;;;2.25;1.10;;;21.50;63.50;;;;;;4937450;28;20036;-51
2023/07/26 04:01:44;;;;;;;5.10;1.50;;;21.50;63.50;;;;;;4940016;28;20378;-52
2023/07/26 04:04:10;;;;;;;1.80;1.00;;;21.50;63.50;;;;;;4942489;28;20063;-52
2023/07/26 04:06:35;;;;;;;2.42;1.33;;;21.50;63.50;;;;;;4942931;28;20101;-52
2023/07/26 04:09:01;;;;;;;3.22;1.20;;;21.50;63.50;;;;;;4941914;28;20478;-53
2023/07/26 04:11:26;;;;;;;3.40;1.10;;;21.50;63.40;;;;;;4942253;28;20035;-52
2023/07/26 04:13:52;;;;;;;4.70;1.23;;;21.50;63.40;;;;;;4932735;28;20058;-51
2023/07/26 04:16:19;;;;;;;4.18;1.20;;;21.40;63.50;;;;;;4939458;28;20528;-53
2023/07/26 04:18:45;;;;;;;2.70;1.08;;;21.50;63.40;;;;;;4939748;28;20042;-51
2023/07/26 04:21:14;;;;;;;4.45;1.77;;;21.50;63.30;;;;;;4936710;28;20032;-51
2023/07/26 04:23:40;;;;;;;3.35;1.30;;;21.50;63.50;;;;;;4936929;28;20039;-53
2023/07/26 04:26:05;;;;;;;2.75;1.27;;;21.40;63.30;;;;;;4935285;28;20027;-53
2023/07/26 04:28:31;;;;;;;2.85;1.30;;;21.50;63.10;;;;;;4935621;28;21197;-53
2023/07/26 04:30:56;;;;;;;4.40;1.30;;;21.40;63.30;;;;;;4934822;28;20035;-52
2023/07/26 04:33:22;;;;;;;3.65;1.40;;;21.40;63.10;;;;;;4941079;28;20040;-51
2023/07/26 04:35:48;;;;;;;3.17;1.10;;;21.40;63.10;;;;;;4943755;28;20039;-49
2023/07/26 04:38:13;;;;;;;2.47;1.00;;;21.40;63.30;;;;;;4940864;28;20486;-50
2023/07/26 04:40:39;;;;;;;3.05;1.65;;;21.40;63.30;;;;;;4938395;28;20023;-52
2023/07/26 04:43:05;;;;;;;2.72;1.30;;;21.50;63.90;;;;;;4940646;28;20062;-52
2023/07/26 04:45:30;;;;;;;3.25;1.27;;;21.50;63.30;;;;;;4940214;28;20035;-52
2023/07/26 04:47:56;;;;;;;3.92;1.42;;;21.40;63.20;;;;;;4938106;28;20047;-50
2023/07/26 04:50:22;;;;;;;1.63;0.95;;;21.40;63.00;;;;;;4937286;28;20500;-53
2023/07/26 04:52:47;;;;;;;4.00;1.13;;;21.40;63.00;;;;;;4938267;28;20039;-53
2023/07/26 04:55:13;;;;;;;3.22;1.10;;;21.40;63.00;;;;;;4937089;28;20024;-52
2023/07/26 04:57:39;;;;;;;5.35;1.20;;;21.40;63.00;;;;;;4939581;28;20543;-51
2023/07/26 05:00:08;;;;;;;5.18;1.40;;;21.40;63.00;;;;;;4933073;28;20109;-50
2023/07/26 05:02:35;;;;;;;5.22;1.38;;;21.40;63.10;;;;;;4940975;28;20083;-54
2023/07/26 05:05:01;;;;;;;1.65;1.00;;;21.40;62.90;;;;;;4941690;28;20118;-54
2023/07/26 05:07:27;;;;;;;4.03;1.13;;;21.40;62.90;;;;;;4940255;28;20024;-52
2023/07/26 05:09:52;;;;;;;4.47;1.20;;;21.40;63.00;;;;;;4934389;28;20572;-53
2023/07/26 05:12:18;;;;;;;3.95;1.20;;;21.40;62.90;;;;;;4937276;28;20066;-49
2023/07/26 05:14:44;;;;;;;3.75;1.02;;;21.40;63.00;;;;;;4936559;28;20104;-53
2023/07/26 05:17:09;;;;;;;3.00;1.10;;;21.40;63.20;;;;;;4938050;28;20381;-52
2023/07/26 05:19:35;;;;;;;2.42;0.93;;;21.40;63.10;;;;;;4936825;28;20031;-51
2023/07/26 05:22:01;;;;;;;15.95;2.00;;;21.40;63.80;;;;;;4936966;28;20071;-53
2023/07/26 05:24:26;;;;;;;7.45;1.40;;;21.40;64.20;;;;;;4935993;28;20028;-55
2023/07/26 05:26:52;;;;;;;10.75;1.50;;;21.30;64.00;;;;;;4935968;28;20572;-51
2023/07/26 05:29:17;;;;;;;13.13;1.85;;;21.30;63.80;;;;;;4929931;28;20040;-48
2023/07/26 05:31:43;;;;;;;9.35;2.10;;;21.30;63.50;;;;;;4931427;28;20489;-53
2023/07/26 05:34:08;;;;;;;10.48;1.65;;;21.30;63.60;;;;;;4938173;28;20031;-54
2023/07/26 05:36:34;;;;;;;6.18;1.35;;;21.30;63.60;;;;;;4934373;28;20047;-52
2023/07/26 05:38:59;;;;;;;8.20;2.40;;;21.30;63.50;;;;;;4932884;28;20024;-51
2023/07/26 05:41:26;;;;;;;8.20;2.25;;;21.30;63.50;;;;;;4934524;28;20035;-49
2023/07/26 05:43:52;;;;;;;7.30;2.38;;;21.30;63.40;;;;;;4939069;28;20143;-52
2023/07/26 05:46:18;;;;;;;4.88;1.38;;;21.30;63.30;;;;;;4938407;28;20478;-52
2023/07/26 05:48:43;;;;;;;10.63;2.13;;;21.30;63.20;;;;;;4934330;28;20039;-49
2023/07/26 05:51:09;;;;;;;9.25;1.60;;;21.30;63.20;;;;;;4935417;28;20677;-53
2023/07/26 05:53:34;;;;;;;6.20;1.40;;;21.30;63.20;;;;;;4932163;28;20078;-52
2023/07/26 05:56:00;;;;;;;10.77;1.65;;;21.40;63.30;;;;;;4937756;28;20035;-51
2023/07/26 05:58:25;;;;;;;7.05;1.80;;;21.40;63.50;;;;;;4935426;28;20035;-51
2023/07/26 06:00:51;;;;;;;8.02;1.73;;;21.40;64.20;;;;;;4934231;28;20031;-52
2023/07/26 06:03:16;;;;;;;7.63;1.80;;;21.30;63.60;;;;;;4941431;28;20592;-52
2023/07/26 06:05:42;;;;;;;5.78;1.60;;;21.30;63.60;;;;;;4939452;28;20046;-51
2023/07/26 06:08:08;;;;;;;5.55;1.70;;;21.20;63.60;;;;;;4938956;28;20526;-50
2023/07/26 06:10:34;;;;;;;6.75;1.40;;;21.20;63.70;;;;;;4930761;28;20031;-51
2023/07/26 06:12:59;;;;;;;5.78;1.65;;;21.20;63.60;;;;;;4933784;28;20039;-52
2023/07/26 06:15:25;;;;;;;5.47;1.58;;;21.20;63.60;;;;;;4936234;28;20038;-52
2023/07/26 06:17:50;;;;;;;5.95;1.77;;;21.20;63.60;;;;;;4934163;28;20049;-50
2023/07/26 06:20:16;;;;;;;5.28;1.63;;;21.20;63.40;;;;;;4936264;28;20034;-53
2023/07/26 06:22:41;;;;;;;9.20;1.75;;;21.20;63.40;;;;;;4933641;28;20043;-53
2023/07/26 06:25:07;;;;;;;3.67;1.17;;;21.20;63.60;;;;;;4940007;28;20028;-51
2023/07/26 06:27:33;;;;;;;3.28;1.30;;;21.20;63.80;;;;;;4932486;28;20040;-51
2023/07/26 06:29:58;;;;;;;3.38;1.30;;;21.20;64.00;;;;;;4932835;28;20056;-51
2023/07/26 06:32:24;;;;;;;4.85;1.90;;;21.20;63.80;;;;;;4939153;28;20129;-50
2023/07/26 06:34:49;;;;;;;5.93;2.13;;;21.20;64.20;;;;;;4940788;28;20388;-52
2023/07/26 06:37:15;;;;;;;9.20;2.30;;;21.20;64.10;;;;;;4938526;28;20047;-51
2023/07/26 06:39:40;;;;;;;11.40;2.05;;;21.20;64.30;;;;;;4939746;28;20059;-52
2023/07/26 06:42:07;;;;;;;10.98;2.50;;;21.20;64.60;;;;;;4936899;28;20126;-51
2023/07/26 06:44:32;;;;;;;13.55;2.10;;;21.20;65.50;;;;;;4936794;28;20127;-53
2023/07/26 06:46:58;;;;;;;6.25;2.17;;;21.10;64.70;;;;;;4938024;28;20126;-50
2023/07/26 06:49:23;;;;;;;5.93;1.70;;;21.00;63.90;;;;;;4931794;28;20036;-48
2023/07/26 06:51:52;;;;;;;5.35;1.85;;;21.00;63.50;;;;;;4946005;28;20035;-55
2023/07/26 06:54:17;;;;;;;6.07;1.80;;;20.90;63.90;;;;;;4940662;28;20560;-48
2023/07/26 06:56:43;;;;;;;4.13;1.60;;;20.80;63.20;;;;;;4932308;28;20047;-52
2023/07/26 06:59:12;;;;;;;6.80;1.75;;;20.80;63.50;;;;;;4939203;28;20055;-51
2023/07/26 07:01:38;;;;;;;3.40;1.77;;;20.90;63.90;;;;;;4937773;28;20090;-54
2023/07/26 07:04:03;;;;;;;8.77;1.67;;;20.90;64.70;;;;;;4939613;28;20078;-49
2023/07/26 07:06:29;;;;;;;4.72;1.45;;;20.90;64.40;;;;;;4937143;28;20032;-52
2023/07/26 07:08:55;;;;;;;7.32;2.65;;;20.90;64.40;;;;;;4936488;28;20035;-50
2023/07/26 07:11:20;;;;;;;11.25;5.28;;;20.90;63.90;;;;;;4935421;28;20055;-51
2023/07/26 07:13:46;;;;;;;11.13;4.22;;;21.00;64.10;;;;;;4933429;28;20024;-60
2023/07/26 07:16:11;;;;;;;10.32;4.40;;;21.00;63.50;;;;;;4937521;28;20035;-53
2023/07/26 07:18:37;;;;;;;10.00;4.65;;;21.10;63.10;;;;;;4929825;28;20061;-53
2023/07/26 07:21:03;;;;;;;9.38;4.28;;;21.10;63.20;;;;;;4940012;28;20042;-53
2023/07/26 07:23:29;;;;;;;9.45;3.42;;;21.20;63.20;;;;;;4906274;28;20047;-59
2023/07/26 07:25:56;;;;;;;9.32;3.50;;;21.20;63.30;;;;;;4917947;28;20037;-54
2023/07/26 07:28:21;;;;;;;8.70;3.17;;;21.30;63.40;;;;;;4936230;28;20043;-53
2023/07/26 07:30:47;;;;;;;11.15;3.63;;;21.30;63.40;;;;;;4933033;28;20045;-52
2023/07/26 07:33:12;;;;;;;8.10;3.40;;;21.40;63.80;;;;;;4933685;28;20039;-50
2023/07/26 07:35:39;;;;;;;10.13;3.05;;;21.40;63.50;;;;;;4935431;28;20039;-51
2023/07/26 07:38:04;;;;;;;8.70;2.65;;;21.50;62.50;;;;;;4934178;28;20667;-53
2023/07/26 07:40:30;;;;;;;8.93;2.08;;;21.50;62.70;;;;;;4933540;28;20082;-49
2023/07/26 07:42:56;;;;;;;7.97;2.22;;;21.50;62.70;;;;;;4935015;28;20086;-52
2023/07/26 07:45:21;;;;;;;4.35;2.25;;;21.50;62.10;;;;;;4936860;28;20385;-53
2023/07/26 07:47:47;;;;;;;7.72;2.10;;;21.50;62.80;;;;;;4931471;28;20094;-47
2023/07/26 07:50:12;;;;;;;3.72;1.75;;;21.50;62.40;;;;;;4935756;28;20482;-51
2023/07/26 07:52:38;;;;;;;6.97;1.95;;;21.60;62.70;;;;;;4931752;28;20031;-54
2023/07/26 07:55:04;;;;;;;3.72;1.67;;;21.60;63.00;;;;;;4939342;28;20635;-50
2023/07/26 07:57:29;;;;;;;7.55;2.17;;;21.60;62.90;;;;;;4942859;28;20127;-53
2023/07/26 07:59:55;;;;;;;7.88;2.05;;;21.60;63.10;;;;;;4942870;28;20465;-54
2023/07/26 08:02:20;;;;;;;5.03;1.50;;;21.60;62.90;;;;;;4942950;28;20119;-53
2023/07/26 08:04:46;;;;;;;4.90;1.95;;;21.70;62.90;;;;;;4940330;28;20039;-51
2023/07/26 08:07:11;;;;;;;3.30;1.65;;;21.70;62.80;;;;;;4941901;28;20047;-48
2023/07/26 08:09:37;;;;;;;3.90;1.55;;;21.70;62.90;;;;;;4936925;28;20061;-52
2023/07/26 08:12:03;;;;;;;4.20;1.90;;;21.70;62.30;;;;;;4935047;28;20118;-56
2023/07/26 08:14:29;;;;;;;6.45;1.83;;;21.70;62.50;;;;;;4945257;28;20027;-52
2023/07/26 08:16:54;;;;;;;5.07;1.55;;;21.70;62.80;;;;;;4938797;28;20031;-53
2023/07/26 08:19:20;;;;;;;2.97;1.48;;;21.70;62.70;;;;;;4938504;28;20039;-48
2023/07/26 08:21:45;;;;;;;4.38;1.73;;;21.60;61.50;;;;;;4939814;28;20045;-50
2023/07/26 08:24:11;;;;;;;5.35;1.30;;;21.60;62.50;;;;;;4939821;28;20493;-49
2023/07/26 08:26:37;;;;;;;5.55;1.58;;;21.60;62.80;;;;;;4942236;28;20201;-53
2023/07/26 08:29:03;;;;;;;3.92;1.38;;;21.60;61.60;;;;;;4939903;28;20063;-51
2023/07/26 08:31:28;;;;;;;4.15;1.30;;;21.60;62.50;;;;;;4947352;28;20047;-52
2023/07/26 08:33:54;;;;;;;3.00;1.30;;;21.70;62.00;;;;;;4945973;28;20043;-55
2023/07/26 08:36:19;;;;;;;3.17;1.33;;;21.70;62.30;;;;;;4937889;28;20043;-51
2023/07/26 08:38:46;;;;;;;2.67;1.10;;;21.60;62.60;;;;;;4934756;28;20027;-53
2023/07/26 08:41:11;;;;;;;1.90;0.98;;;21.50;63.20;;;;;;4939990;28;20042;-50
2023/07/26 08:43:38;;;;;;;2.85;1.50;;;21.40;63.20;;;;;;4937700;28;20035;-52
2023/07/26 08:46:06;;;;;;;2.25;1.10;;;21.40;63.00;;;;;;4941504;28;20094;-52
2023/07/26 08:48:33;;;;;;;4.40;1.20;;;21.30;62.50;;;;;;4931216;28;20039;-52
2023/07/26 08:51:00;;;;;;;2.58;1.20;;;21.30;62.30;;;;;;4941490;28;20046;-54
2023/07/26 08:53:27;;;;;;;2.92;1.10;;;21.30;61.80;;;;;;4938089;28;20039;-50
2023/07/26 08:55:53;;;;;;;1.92;1.10;;;21.20;61.50;;;;;;4939142;28;20039;-50
2023/07/26 08:58:19;;;;;;;1.58;0.95;;;21.10;60.30;;;;;;4939648;28;20102;-55
2023/07/26 09:00:46;;;;;;;2.78;1.20;;;21.10;61.10;;;;;;4937847;28;20070;-53
2023/07/26 09:03:12;;;;;;;3.00;0.95;;;21.10;60.60;;;;;;4935985;28;20034;-49
2023/07/26 09:05:37;;;;;;;3.78;0.95;;;21.10;60.80;;;;;;4934522;28;20037;-47
2023/07/26 09:08:03;;;;;;;2.80;1.02;;;21.10;60.80;;;;;;4936973;28;20055;-51
2023/07/26 09:10:31;;;;;;;3.42;1.20;;;21.10;61.00;;;;;;4932655;28;20209;-51
2023/07/26 09:13:13;;;;;;;3.67;1.50;;;21.10;60.90;;;;;;4942201;28;20114;-52
2023/07/26 09:15:45;;;;;;;3.78;1.10;;;21.10;60.70;;;;;;4940046;28;20163;-52
2023/07/26 09:18:12;;;;;;;7.20;1.67;;;21.10;59.00;;;;;;4942798;28;20492;-52
2023/07/26 09:20:38;;;;;;;2.85;1.00;;;20.90;59.40;;;;;;4938960;28;20038;-51
2023/07/26 09:23:04;;;;;;;3.72;1.10;;;20.90;59.30;;;;;;4940326;28;20216;-52
2023/07/26 09:25:37;;;;;;;2.78;1.15;;;21.00;58.50;;;;;;4938710;28;20126;-48
2023/07/26 09:28:03;;;;;;;3.00;1.20;;;21.00;60.00;;;;;;4938356;28;20031;-51
2023/07/26 09:30:33;;;;;;;3.88;1.30;;;21.00;59.80;;;;;;4949286;28;20028;-50
2023/07/26 09:33:01;;;;;;;3.45;1.38;;;21.00;59.70;;;;;;4933526;28;20062;-48
2023/07/26 09:35:26;;;;;;;2.03;1.00;;;21.00;59.80;;;;;;4935823;28;20508;-51
2023/07/26 09:37:52;;;;;;;2.22;0.90;;;21.00;59.70;;;;;;4935792;28;20093;-48
2023/07/26 09:40:33;;;;;;;2.72;1.17;;;21.00;58.70;;;;;;4934493;28;20030;-52
2023/07/26 09:42:59;;;;;;;2.67;1.17;;;21.00;59.80;;;;;;4940730;28;20446;-51
2023/07/26 09:45:24;;;;;;;1.83;1.08;;;21.00;60.00;;;;;;4939934;28;20023;-49
2023/07/26 09:47:51;;;;;;;2.55;0.98;;;21.00;60.00;;;;;;4938756;28;20093;-50
2023/07/26 09:50:27;;;;;;;3.50;1.20;;;21.00;59.60;;;;;;4935693;28;20417;-48
2023/07/26 09:52:54;;;;;;;2.15;1.00;;;21.00;59.50;;;;;;4938089;28;20090;-48
2023/07/26 09:55:23;;;;;;;2.15;1.20;;;21.00;59.80;;;;;;4940081;28;20145;-52
2023/07/26 09:57:49;;;;;;;3.97;1.20;;;21.00;60.00;;;;;;4935979;28;20160;-52
2023/07/26 10:00:16;;;;;;;2.33;0.80;;;21.10;60.20;;;;;;4934509;28;20091;-52
2023/07/26 10:02:45;;;;;;;1.25;1.10;;;21.20;59.80;;;;;;4934019;28;20544;-52
2023/07/26 10:05:13;;;;;;;1.30;0.98;;;21.20;60.40;;;;;;4937326;28;20027;-53
2023/07/26 10:07:40;;;;;;;2.42;1.13;;;21.20;60.30;;;;;;4935677;28;20019;-51
2023/07/26 10:10:07;;;;;;;1.40;0.75;;;21.30;60.40;;;;;;4937274;28;20035;-52
2023/07/26 10:12:33;;;;;;;1.52;1.02;;;21.20;59.30;;;;;;4939968;28;20031;-52
2023/07/26 10:15:02;;;;;;;2.85;1.13;;;21.30;60.50;;;;;;4940438;28;20035;-52
2023/07/26 10:17:28;;;;;;;4.82;0.95;;;21.30;60.50;;;;;;4940177;28;20034;-51
2023/07/26 10:19:55;;;;;;;2.70;1.05;;;21.30;60.50;;;;;;4934863;28;20032;-51
2023/07/26 10:22:21;;;;;;;1.85;0.80;;;21.30;60.60;;;;;;4940097;28;20162;-54
2023/07/26 10:24:46;;;;;;;1.77;0.93;;;21.40;60.60;;;;;;4937659;28;20134;-51
2023/07/26 10:27:12;;;;;;;1.63;0.80;;;21.40;60.50;;;;;;4937811;28;20035;-50
2023/07/26 10:29:39;;;;;;;2.53;1.20;;;21.40;60.70;;;;;;4939471;28;20098;-54
2023/07/26 10:32:07;;;;;;;1.95;0.80;;;21.40;60.70;;;;;;4934301;28;20055;-52
2023/07/26 10:34:33;;;;;;;1.88;0.73;;;21.40;60.90;;;;;;4937401;28;20389;-51
2023/07/26 10:36:58;;;;;;;2.60;0.80;;;21.40;60.90;;;;;;4932529;28;20118;-50
2023/07/26 10:39:29;;;;;;;2.60;1.33;;;21.40;60.90;;;;;;4938734;28;20686;-53
2023/07/26 10:41:55;;;;;;;1.77;0.93;;;21.40;60.90;;;;;;4938387;28;20552;-54
2023/07/26 10:44:21;;;;;;;1.75;1.00;;;21.40;60.80;;;;;;4939909;28;20046;-52
2023/07/26 10:46:48;;;;;;;2.75;1.00;;;21.40;60.80;;;;;;4938555;28;20032;-51
2023/07/26 10:49:28;;;;;;;2.78;0.82;;;21.40;60.40;;;;;;4938358;28;20042;-50
2023/07/26 10:52:02;;;;;;;1.15;0.77;;;21.40;60.70;;;;;;4936719;28;20719;-49
2023/07/26 10:54:42;;;;;;;1.55;0.90;;;21.40;60.50;;;;;;4939517;28;20051;-49
2023/07/26 10:57:20;;;;;;;2.78;0.95;;;21.40;60.70;;;;;;4934030;28;20059;-52
2023/07/26 10:59:57;;;;;;;1.67;0.82;;;21.40;60.70;;;;;;4936599;28;20040;-51
2023/07/26 11:02:35;;;;;;;2.13;1.40;;;21.40;60.80;;;;;;4937135;28;20038;-50
2023/07/26 11:05:08;;;;;;;1.77;1.17;;;21.40;60.90;;;;;;4949037;28;20466;-51
2023/07/26 11:08:05;;;;;;;0.98;0.77;;;21.40;60.90;;;;;;4934298;28;20062;-53
2023/07/26 11:10:38;;;;;;;3.13;0.95;;;21.40;60.90;;;;;;4936094;28;20067;-53
2023/07/26 11:13:15;;;;;;;2.25;1.70;;;21.40;61.00;;;;;;4935541;28;20087;-51
2023/07/26 11:15:43;;;;;;;3.75;1.20;;;21.30;60.90;;;;;;4937783;28;20032;-54
2023/07/26 11:18:10;;;;;;;1.20;0.70;;;21.30;61.00;;;;;;4939418;28;20078;-52
2023/07/26 11:20:46;;;;;;;2.53;0.82;;;21.40;61.00;;;;;;4936425;28;20061;-53
2023/07/26 11:23:19;;;;;;;1.60;1.10;;;21.40;61.10;;;;;;4937692;28;20028;-52
2023/07/26 11:25:50;;;;;;;1.55;1.05;;;21.40;61.10;;;;;;4938574;28;20555;-55
2023/07/26 11:28:16;;;;;;;1.63;0.93;;;21.40;61.20;;;;;;4937966;28;20035;-52
2023/07/26 11:30:49;;;;;;;4.00;1.38;;;21.40;61.30;;;;;;4935752;28;20123;-53
2023/07/26 11:33:35;;;;;;;1.45;0.65;;;21.40;61.30;;;;;;4938386;28;20031;-51
2023/07/26 11:36:07;;;;;;;2.90;0.88;;;21.40;61.30;;;;;;4940287;28;20107;-52
2023/07/26 11:38:33;;;;;;;1.00;0.80;;;21.40;61.50;;;;;;4940739;28;20028;-53
2023/07/26 11:40:59;;;;;;;1.05;0.70;;;21.40;61.60;;;;;;4940820;28;20039;-52
2023/07/26 11:43:26;;;;;;;2.60;1.73;;;21.40;61.60;;;;;;4942257;28;20038;-51
2023/07/26 11:45:53;;;;;;;2.08;0.98;;;21.40;61.50;;;;;;4940874;28;20027;-48
2023/07/26 11:48:19;;;;;;;1.88;0.80;;;21.40;61.40;;;;;;4939693;28;20030;-51
2023/07/26 11:50:45;;;;;;;1.38;0.70;;;21.40;60.90;;;;;;4942580;28;20071;-53
2023/07/26 11:53:13;;;;;;;1.83;0.80;;;21.40;61.00;;;;;;4939741;28;20055;-53
2023/07/26 11:55:41;;;;;;;2.85;1.10;;;21.30;61.00;;;;;;4937475;28;20039;-51
2023/07/26 11:58:09;;;;;;;1.20;0.95;;;21.30;61.70;;;;;;4936833;28;20046;-51
2023/07/26 12:00:37;;;;;;;1.45;0.80;;;21.40;61.70;;;;;;4939206;28;20027;-52
2023/07/26 12:03:05;;;;;;;1.30;0.70;;;21.40;61.60;;;;;;4937900;28;20114;-50
2023/07/26 12:05:32;;;;;;;1.58;1.00;;;21.40;61.20;;;;;;4942963;28;20572;-50
2023/07/26 12:08:00;;;;;;;2.67;0.90;;;21.30;60.40;;;;;;4939447;28;20040;-51
2023/07/26 12:10:34;;;;;;;1.98;0.90;;;21.20;60.30;;;;;;4938944;28;20024;-55
2023/07/26 12:13:07;;;;;;;1.77;1.30;;;21.00;60.10;;;;;;4939150;28;20082;-56
2023/07/26 12:15:50;;;;;;;3.75;1.10;;;21.10;61.20;;;;;;4939673;28;20036;-50
2023/07/26 12:18:16;;;;;;;2.05;1.08;;;21.10;60.30;;;;;;4935231;28;20126;-52
2023/07/26 12:20:59;;;;;;;1.83;0.93;;;21.00;60.20;;;;;;4954049;28;20031;-57
2023/07/26 12:23:28;;;;;;;3.95;1.30;;;20.90;61.00;;;;;;4938588;28;20126;-50
2023/07/26 12:25:56;;;;;;;1.27;1.17;;;20.80;60.70;;;;;;4941179;28;20058;-53
2023/07/26 12:28:25;;;;;;;2.15;1.10;;;20.70;59.50;;;;;;4936546;28;20412;-50
2023/07/26 12:30:56;;;;;;;3.30;1.52;;;20.70;60.80;;;;;;4940587;28;20050;-52
2023/07/26 12:33:23;;;;;;;2.47;1.00;;;20.90;59.90;;;;;;4940553;28;20204;-53
2023/07/26 12:35:52;;;;;;;1.27;0.93;;;20.90;60.60;;;;;;4939902;28;20050;-55
2023/07/26 12:38:18;;;;;;;3.00;1.10;;;21.00;61.10;;;;;;4939346;28;20035;-52
2023/07/26 12:40:44;;;;;;;2.05;0.93;;;21.00;61.00;;;;;;4937961;28;20035;-53
2023/07/26 12:43:28;;;;;;;1.05;0.80;;;21.10;60.90;;;;;;4937092;28;20039;-53